Time;durP1;ratioP1;P1;durP2;ratioP2;P2;SDS_P1;SDS_P2;PMS_P1;PMS_P2;Temp;Humidity;BMP_temperature;BMP_pressure;BME280_temperature;BME280_humidity;BME280_pressure;Samples;Min_cycle;Max_cycle;Signal;HPM_P1;HPM_P2
2023/04/13 00:00:46;;;;;;;0.60;0.60;;;22.40;52.70;;;;;;5025684;28;20447;-74
2023/04/13 00:03:15;;;;;;;0.80;0.60;;;22.40;52.70;;;;;;5027698;28;20481;-76
2023/04/13 00:05:46;;;;;;;1.07;0.50;;;22.30;52.70;;;;;;5031762;28;20844;-75
2023/04/13 00:08:15;;;;;;;1.00;0.70;;;22.30;52.70;;;;;;5031945;28;20451;-75
2023/04/13 00:10:44;;;;;;;1.57;0.80;;;22.30;52.70;;;;;;5013654;28;20947;-78
2023/04/13 00:13:13;;;;;;;0.70;0.60;;;22.30;52.70;;;;;;5030402;28;20566;-75
2023/04/13 00:15:44;;;;;;;0.50;0.40;;;22.30;52.70;;;;;;5031101;28;20455;-75
2023/04/13 00:18:12;;;;;;;0.73;0.67;;;22.30;52.70;;;;;;5031010;28;20478;-74
2023/04/13 00:20:42;;;;;;;0.60;0.60;;;22.30;52.70;;;;;;5024794;28;20496;-74
2023/04/13 00:23:11;;;;;;;0.50;0.50;;;22.30;52.60;;;;;;5031630;28;20569;-79
2023/04/13 00:25:39;;;;;;;1.13;0.50;;;22.30;52.70;;;;;;5013617;28;20452;-75
2023/04/13 00:28:07;;;;;;;0.43;0.43;;;22.30;52.60;;;;;;5031484;28;20990;-77
2023/04/13 00:30:36;;;;;;;0.50;0.50;;;22.20;52.80;;;;;;5013215;28;20470;-75
2023/04/13 00:33:06;;;;;;;0.80;0.60;;;22.20;52.70;;;;;;5031283;28;20537;-75
2023/04/13 00:35:34;;;;;;;0.60;0.60;;;22.20;52.70;;;;;;5010924;28;20463;-77
2023/04/13 00:38:03;;;;;;;0.40;0.40;;;22.20;52.70;;;;;;5031302;28;20573;-74
2023/04/13 00:40:31;;;;;;;0.53;0.53;;;22.20;52.70;;;;;;5012358;28;20462;-75
2023/04/13 00:43:00;;;;;;;0.60;0.60;;;22.20;52.70;;;;;;5031500;28;20459;-75
2023/04/13 00:45:30;;;;;;;0.50;0.50;;;22.20;52.70;;;;;;5029916;28;20533;-76
2023/04/13 00:47:58;;;;;;;0.47;0.47;;;22.10;52.90;;;;;;5013308;28;20575;-75
2023/04/13 00:50:29;;;;;;;0.50;0.50;;;22.10;52.80;;;;;;5031264;28;20454;-79
2023/04/13 00:52:57;;;;;;;0.40;0.40;;;22.10;52.80;;;;;;5023768;28;20539;-74
2023/04/13 00:55:26;;;;;;;0.60;0.60;;;22.10;52.90;;;;;;5030805;28;20455;-75
2023/04/13 00:57:56;;;;;;;0.60;0.60;;;22.10;52.90;;;;;;5031487;28;20485;-74
2023/04/13 01:00:26;;;;;;;0.40;0.40;;;22.10;52.90;;;;;;5012623;28;20458;-75
2023/04/13 01:02:54;;;;;;;0.60;0.60;;;22.10;52.90;;;;;;5031210;28;20459;-77
2023/04/13 01:05:24;;;;;;;0.70;0.70;;;22.10;52.90;;;;;;5031097;28;20458;-75
2023/04/13 01:08:07;;;;;;;0.60;0.60;;;22.10;52.90;;;;;;5031074;28;20478;-75
2023/04/13 01:10:43;;;;;;;0.57;0.57;;;22.10;52.90;;;;;;5028022;28;20478;-75
2023/04/13 01:13:19;;;;;;;0.60;0.60;;;22.10;52.90;;;;;;5013052;28;20448;-77
2023/04/13 01:16:13;;;;;;;0.70;0.50;;;22.10;52.90;;;;;;4998452;28;20490;-75
2023/04/13 01:18:45;;;;;;;0.40;0.40;;;22.10;52.90;;;;;;5012822;28;20458;-75
2023/04/13 01:21:18;;;;;;;0.70;0.50;;;22.10;52.90;;;;;;5030498;28;20475;-77
2023/04/13 01:23:59;;;;;;;0.87;0.87;;;22.10;52.90;;;;;;5012740;28;20459;-75
2023/04/13 01:26:38;;;;;;;0.60;0.60;;;22.10;52.90;;;;;;5030781;28;20462;-75
2023/04/13 01:29:09;;;;;;;0.60;0.60;;;22.10;52.90;;;;;;5029888;28;20459;-75
2023/04/13 01:31:37;;;;;;;0.70;0.67;;;22.00;52.90;;;;;;5030290;28;20564;-77
2023/04/13 01:34:06;;;;;;;0.60;0.60;;;22.00;52.90;;;;;;5012969;28;20486;-76
2023/04/13 01:36:34;;;;;;;0.67;0.50;;;22.00;52.90;;;;;;5003723;28;21020;-77
2023/04/13 01:39:03;;;;;;;0.50;0.40;;;22.00;52.90;;;;;;5009299;28;20909;-76
2023/04/13 01:41:32;;;;;;;0.40;0.40;;;22.00;52.80;;;;;;5012781;28;20463;-74
2023/04/13 01:44:00;;;;;;;0.30;0.30;;;22.00;53.00;;;;;;5029938;28;20950;-75
2023/04/13 01:46:34;;;;;;;1.23;0.50;;;22.00;53.00;;;;;;5012205;28;20478;-74
2023/04/13 01:49:10;;;;;;;0.50;0.50;;;22.00;53.00;;;;;;5020128;28;20883;-75
2023/04/13 01:52:10;;;;;;;0.50;0.50;;;22.00;53.00;;;;;;5008138;28;20580;-76
2023/04/13 01:54:44;;;;;;;0.63;0.63;;;22.00;53.00;;;;;;5012550;28;20456;-74
2023/04/13 01:57:13;;;;;;;0.60;0.50;;;22.00;53.00;;;;;;5016329;28;20866;-74
2023/04/13 01:59:43;;;;;;;0.80;0.73;;;22.00;53.00;;;;;;5004743;28;20460;-74
2023/04/13 02:02:17;;;;;;;0.50;0.50;;;22.00;52.90;;;;;;5015808;28;20524;-74
2023/04/13 02:04:45;;;;;;;0.60;0.50;;;21.90;52.90;;;;;;5022989;28;20461;-77
2023/04/13 02:07:15;;;;;;;0.50;0.40;;;21.90;53.00;;;;;;5034547;28;20470;-78
2023/04/13 02:09:47;;;;;;;0.57;0.50;;;21.90;53.00;;;;;;5012014;28;20463;-74
2023/04/13 02:12:16;;;;;;;0.50;0.50;;;21.90;53.00;;;;;;5014726;28;20575;-76
2023/04/13 02:14:44;;;;;;;0.60;0.60;;;21.90;53.00;;;;;;5013383;28;20547;-75
2023/04/13 02:17:13;;;;;;;0.60;0.60;;;21.90;53.00;;;;;;5016249;28;20461;-74
2023/04/13 02:19:44;;;;;;;0.50;0.50;;;21.90;53.00;;;;;;5015824;28;20523;-74
2023/04/13 02:22:15;;;;;;;0.63;0.63;;;21.90;53.00;;;;;;5016541;28;20474;-75
2023/04/13 02:24:43;;;;;;;0.70;0.60;;;21.90;53.00;;;;;;5033455;28;20454;-75
2023/04/13 02:27:11;;;;;;;0.50;0.50;;;21.90;53.00;;;;;;5001304;28;20857;-74
2023/04/13 02:29:39;;;;;;;0.57;0.43;;;21.90;53.00;;;;;;5033278;28;20528;-75
2023/04/13 02:32:07;;;;;;;0.60;0.60;;;21.90;53.00;;;;;;5015786;28;20470;-74
2023/04/13 02:34:36;;;;;;;0.80;0.63;;;21.90;53.00;;;;;;5015786;28;20451;-74
2023/04/13 02:37:08;;;;;;;0.80;0.70;;;21.80;53.00;;;;;;5015514;28;20832;-78
2023/04/13 02:39:36;;;;;;;0.57;0.57;;;21.80;53.00;;;;;;5030526;28;20467;-75
2023/04/13 02:42:06;;;;;;;0.70;0.70;;;21.80;53.00;;;;;;5015792;28;20471;-75
2023/04/13 02:44:35;;;;;;;0.90;0.50;;;21.80;53.00;;;;;;5015316;28;20542;-74
2023/04/13 02:47:03;;;;;;;0.60;0.60;;;21.80;53.00;;;;;;5014017;28;20882;-75
2023/04/13 02:49:31;;;;;;;0.40;0.40;;;21.80;53.00;;;;;;5033269;28;20819;-74
2023/04/13 02:52:33;;;;;;;0.60;0.50;;;21.80;53.00;;;;;;5005101;28;20616;-74
2023/04/13 02:55:06;;;;;;;0.57;0.53;;;21.80;53.00;;;;;;5003218;28;20466;-74
2023/04/13 02:57:48;;;;;;;0.50;0.50;;;21.80;53.00;;;;;;5012776;28;20832;-78
2023/04/13 03:00:18;;;;;;;0.73;0.70;;;21.80;53.00;;;;;;5014847;28;20452;-74
2023/04/13 03:02:55;;;;;;;0.60;0.43;;;21.80;53.00;;;;;;5015123;28;20458;-74
2023/04/13 03:05:27;;;;;;;0.40;0.40;;;21.80;53.00;;;;;;5015190;28;20550;-75
2023/04/13 03:07:58;;;;;;;0.40;0.40;;;21.80;53.00;;;;;;5014570;28;20541;-78
2023/04/13 03:10:30;;;;;;;0.80;0.50;;;21.80;53.00;;;;;;5018245;28;20465;-74
2023/04/13 03:13:00;;;;;;;0.70;0.70;;;21.80;53.00;;;;;;5029550;28;20547;-75
2023/04/13 03:15:29;;;;;;;0.70;0.70;;;21.80;53.00;;;;;;5014837;28;20461;-75
2023/04/13 03:17:59;;;;;;;0.43;0.43;;;21.80;53.00;;;;;;5015176;28;20456;-75
2023/04/13 03:20:29;;;;;;;1.10;0.80;;;21.80;53.00;;;;;;5015148;28;20520;-75
2023/04/13 03:23:03;;;;;;;0.63;0.60;;;21.80;53.00;;;;;;5015328;28;20552;-74
2023/04/13 03:25:34;;;;;;;0.50;0.50;;;21.80;53.00;;;;;;5014793;28;20463;-75
2023/04/13 03:28:03;;;;;;;0.50;0.50;;;21.80;53.00;;;;;;5015157;28;20816;-74
2023/04/13 03:30:37;;;;;;;0.60;0.60;;;21.80;53.00;;;;;;5014989;28;20833;-75
2023/04/13 03:33:05;;;;;;;0.50;0.50;;;21.80;53.00;;;;;;5014345;28;20479;-75
2023/04/13 03:35:36;;;;;;;0.60;0.40;;;21.80;53.00;;;;;;5032466;28;20462;-77
2023/04/13 03:38:10;;;;;;;0.70;0.60;;;21.70;53.00;;;;;;5012940;28;20986;-75
2023/04/13 03:40:43;;;;;;;0.53;0.53;;;21.80;53.00;;;;;;5000952;28;20460;-74
2023/04/13 03:43:11;;;;;;;0.40;0.40;;;21.70;53.00;;;;;;5014275;28;20468;-76
2023/04/13 03:45:48;;;;;;;0.80;0.50;;;21.70;53.00;;;;;;5014838;28;20457;-74
2023/04/13 03:48:19;;;;;;;0.50;0.50;;;21.70;53.00;;;;;;5014292;28;20479;-75
2023/04/13 03:50:47;;;;;;;0.50;0.50;;;21.70;53.10;;;;;;5032735;28;20449;-75
2023/04/13 03:53:20;;;;;;;0.50;0.50;;;21.80;53.10;;;;;;5013755;28;20996;-75
2023/04/13 03:55:55;;;;;;;0.50;0.50;;;21.80;53.10;;;;;;5010817;28;20515;-75
2023/04/13 03:58:23;;;;;;;0.60;0.50;;;21.80;53.00;;;;;;5013851;28;20819;-77
2023/04/13 04:00:52;;;;;;;0.60;0.50;;;21.80;53.10;;;;;;5014363;28;20873;-74
2023/04/13 04:03:34;;;;;;;0.57;0.57;;;21.80;53.00;;;;;;5013738;28;20465;-76
2023/04/13 04:06:07;;;;;;;0.63;0.50;;;21.80;53.10;;;;;;5014689;28;21182;-77
2023/04/13 04:08:39;;;;;;;0.57;0.57;;;21.90;53.00;;;;;;5011387;28;20462;-74
2023/04/13 04:11:18;;;;;;;0.50;0.50;;;21.90;53.00;;;;;;5013246;28;20488;-75
2023/04/13 04:13:46;;;;;;;0.57;0.57;;;21.90;53.00;;;;;;5013423;28;20541;-74
2023/04/13 04:16:15;;;;;;;0.40;0.40;;;22.00;53.00;;;;;;5031673;28;20462;-76
2023/04/13 04:18:49;;;;;;;0.60;0.60;;;22.00;53.00;;;;;;5013211;28;20803;-75
2023/04/13 04:21:20;;;;;;;0.40;0.40;;;22.00;53.00;;;;;;5014438;28;20509;-79
2023/04/13 04:23:51;;;;;;;0.50;0.50;;;22.00;52.90;;;;;;5031401;28;20463;-75
2023/04/13 04:26:24;;;;;;;0.60;0.60;;;22.10;52.90;;;;;;5013721;28;20961;-74
2023/04/13 04:29:00;;;;;;;0.80;0.47;;;22.10;52.80;;;;;;5013209;28;20458;-75
2023/04/13 04:31:33;;;;;;;0.47;0.47;;;22.10;52.70;;;;;;5003416;28;20833;-75
2023/04/13 04:34:09;;;;;;;0.53;0.50;;;22.20;52.70;;;;;;5009553;28;21406;-76
2023/04/13 04:36:40;;;;;;;1.07;0.97;;;22.20;52.60;;;;;;5002869;28;20493;-75
2023/04/13 04:39:13;;;;;;;0.40;0.40;;;22.20;52.60;;;;;;5006977;28;20459;-75
2023/04/13 04:41:52;;;;;;;0.40;0.40;;;22.20;52.50;;;;;;4999398;28;20463;-75
2023/04/13 04:44:23;;;;;;;0.50;0.50;;;22.20;52.50;;;;;;5005414;28;20861;-74
2023/04/13 04:46:55;;;;;;;0.37;0.37;;;22.20;52.50;;;;;;5014121;28;20804;-74
2023/04/13 04:49:23;;;;;;;0.40;0.40;;;22.10;52.50;;;;;;5031033;28;20441;-74
2023/04/13 04:51:52;;;;;;;0.50;0.40;;;22.10;52.50;;;;;;5013223;28;20508;-75
2023/04/13 04:54:21;;;;;;;1.50;0.60;;;22.10;52.50;;;;;;5010454;28;20510;-75
2023/04/13 04:56:50;;;;;;;0.47;0.47;;;22.10;52.50;;;;;;5013200;28;20531;-74
2023/04/13 04:59:20;;;;;;;0.47;0.40;;;22.10;52.50;;;;;;5012377;28;20458;-75
2023/04/13 05:01:57;;;;;;;0.70;0.70;;;22.10;52.50;;;;;;5011388;28;20474;-75
2023/04/13 05:04:28;;;;;;;1.10;0.67;;;22.00;52.60;;;;;;5012960;28;20508;-75
2023/04/13 05:06:57;;;;;;;0.40;0.40;;;22.00;52.60;;;;;;5013733;28;20456;-74
2023/04/13 05:09:27;;;;;;;0.60;0.60;;;22.00;52.70;;;;;;5008194;28;20465;-74
2023/04/13 05:11:58;;;;;;;0.80;0.50;;;22.00;52.70;;;;;;5030871;28;20450;-75
2023/04/13 05:14:26;;;;;;;1.03;0.53;;;22.00;52.70;;;;;;5012419;28;20968;-75
2023/04/13 05:16:54;;;;;;;0.70;0.70;;;22.00;52.70;;;;;;5012364;28;20502;-74
2023/04/13 05:19:30;;;;;;;0.40;0.40;;;22.00;52.70;;;;;;5011763;28;20453;-75
2023/04/13 05:22:08;;;;;;;0.63;0.60;;;22.00;52.70;;;;;;5013346;28;20550;-74
2023/04/13 05:24:44;;;;;;;0.43;0.43;;;21.90;52.70;;;;;;5012761;28;20491;-75
2023/04/13 05:27:14;;;;;;;0.50;0.50;;;21.90;52.70;;;;;;5012880;28;20473;-75
2023/04/13 05:29:43;;;;;;;0.63;0.40;;;21.90;52.80;;;;;;5012426;28;20966;-75
2023/04/13 05:32:17;;;;;;;0.50;0.50;;;21.90;52.70;;;;;;5016621;28;20461;-75
2023/04/13 05:34:47;;;;;;;0.50;0.50;;;21.90;52.70;;;;;;5016497;28;20497;-74
2023/04/13 05:37:20;;;;;;;0.60;0.60;;;21.90;52.70;;;;;;5017534;28;20470;-76
2023/04/13 05:39:50;;;;;;;0.60;0.40;;;21.90;52.70;;;;;;5015809;28;20949;-75
2023/04/13 05:42:23;;;;;;;0.50;0.50;;;21.90;52.70;;;;;;5016846;28;20520;-75
2023/04/13 05:44:52;;;;;;;0.60;0.60;;;21.90;52.60;;;;;;5016578;28;20486;-74
2023/04/13 05:47:22;;;;;;;0.53;0.53;;;21.90;52.60;;;;;;5016797;28;20964;-75
2023/04/13 05:49:55;;;;;;;0.67;0.40;;;21.90;52.70;;;;;;5016170;28;20466;-75
2023/04/13 05:52:25;;;;;;;0.50;0.50;;;22.00;52.80;;;;;;5015562;28;20492;-76
2023/04/13 05:54:54;;;;;;;1.23;0.50;;;22.00;52.70;;;;;;5016149;28;20532;-75
2023/04/13 05:57:23;;;;;;;0.50;0.50;;;22.00;52.70;;;;;;5017303;28;20592;-75
2023/04/13 05:59:55;;;;;;;0.83;0.53;;;22.00;52.70;;;;;;5015741;28;20551;-74
2023/04/13 06:02:40;;;;;;;0.70;0.70;;;22.00;52.70;;;;;;5033822;28;20457;-80
2023/04/13 06:05:13;;;;;;;0.70;0.70;;;22.00;52.70;;;;;;5007900;28;20499;-74
2023/04/13 06:07:43;;;;;;;0.70;0.47;;;22.10;52.60;;;;;;5010199;28;20459;-74
2023/04/13 06:10:14;;;;;;;0.77;0.50;;;22.10;52.60;;;;;;5025058;28;20486;-74
2023/04/13 06:12:43;;;;;;;0.50;0.50;;;22.10;52.60;;;;;;5033185;28;20491;-74
2023/04/13 06:15:12;;;;;;;0.60;0.60;;;22.10;52.50;;;;;;5032956;28;20471;-74
2023/04/13 06:17:41;;;;;;;0.50;0.40;;;22.10;52.50;;;;;;5013076;28;20835;-75
2023/04/13 06:20:10;;;;;;;0.50;0.50;;;22.10;52.50;;;;;;5011430;28;20468;-75
2023/04/13 06:22:38;;;;;;;0.40;0.37;;;22.10;52.50;;;;;;5014380;28;20860;-75
2023/04/13 06:25:09;;;;;;;0.50;0.40;;;22.10;52.50;;;;;;5011892;28;20489;-79
2023/04/13 06:27:42;;;;;;;0.50;0.50;;;22.10;52.50;;;;;;5009319;28;20466;-75
2023/04/13 06:30:11;;;;;;;0.50;0.50;;;22.10;52.50;;;;;;5012270;28;20561;-74
2023/04/13 06:32:40;;;;;;;0.50;0.47;;;22.10;52.50;;;;;;5015684;28;20478;-81
2023/04/13 06:35:09;;;;;;;0.63;0.60;;;22.10;52.50;;;;;;5011772;28;20471;-75
2023/04/13 06:37:44;;;;;;;1.53;0.60;;;22.10;52.40;;;;;;5005595;28;20454;-74
2023/04/13 06:40:18;;;;;;;0.60;0.50;;;22.10;52.40;;;;;;5011432;28;20477;-74
2023/04/13 06:42:55;;;;;;;0.40;0.40;;;22.10;52.40;;;;;;5033019;28;20496;-75
2023/04/13 06:45:32;;;;;;;0.97;0.60;;;22.10;52.40;;;;;;5015025;28;20466;-74
2023/04/13 06:48:06;;;;;;;0.40;0.40;;;22.10;52.40;;;;;;5015198;28;20884;-75
2023/04/13 06:50:37;;;;;;;0.60;0.60;;;22.00;52.40;;;;;;5015658;28;20462;-75
2023/04/13 06:53:07;;;;;;;2.00;0.80;;;22.00;52.30;;;;;;5015181;28;21396;-78
2023/04/13 06:55:35;;;;;;;0.53;0.50;;;22.00;52.40;;;;;;5011762;28;20548;-75
2023/04/13 06:58:04;;;;;;;0.70;0.67;;;22.00;52.40;;;;;;5022988;28;20449;-75
2023/04/13 07:00:33;;;;;;;0.57;0.57;;;22.00;52.40;;;;;;5014071;28;20485;-75
2023/04/13 07:03:02;;;;;;;0.80;0.60;;;22.00;52.40;;;;;;5007833;28;20466;-75
2023/04/13 07:05:31;;;;;;;0.67;0.67;;;22.00;52.60;;;;;;5006123;28;20477;-75
2023/04/13 07:08:06;;;;;;;0.90;0.43;;;22.00;52.50;;;;;;5014368;28;20453;-75
2023/04/13 07:10:38;;;;;;;1.80;0.60;;;22.00;52.40;;;;;;5013822;28;21051;-78
2023/04/13 07:13:13;;;;;;;0.93;0.80;;;22.00;52.40;;;;;;5011613;28;20485;-75
2023/04/13 07:15:41;;;;;;;0.60;0.60;;;22.00;52.50;;;;;;5014463;28;20481;-76
2023/04/13 07:18:10;;;;;;;0.80;0.57;;;22.00;52.40;;;;;;5001626;28;20470;-75
2023/04/13 07:20:38;;;;;;;0.60;0.50;;;22.00;52.40;;;;;;5014505;28;20497;-75
2023/04/13 07:23:08;;;;;;;0.70;0.60;;;22.00;52.50;;;;;;4999355;28;20471;-74
2023/04/13 07:25:37;;;;;;;0.90;0.60;;;22.10;52.40;;;;;;5015447;28;20880;-75
2023/04/13 07:28:10;;;;;;;0.67;0.40;;;22.10;52.40;;;;;;5014536;28;20461;-77
2023/04/13 07:30:43;;;;;;;0.80;0.80;;;22.10;52.30;;;;;;5014245;28;20461;-77
2023/04/13 07:33:11;;;;;;;0.70;0.70;;;22.10;52.20;;;;;;5014638;28;20488;-76
2023/04/13 07:35:40;;;;;;;1.87;0.70;;;22.10;52.30;;;;;;5032148;28;21118;-75
2023/04/13 07:38:10;;;;;;;0.60;0.60;;;22.10;52.20;;;;;;5011552;28;20465;-79
2023/04/13 07:40:38;;;;;;;1.23;0.60;;;22.10;52.20;;;;;;5012916;28;20586;-77
2023/04/13 07:43:10;;;;;;;0.80;0.60;;;22.10;52.10;;;;;;5012057;28;20788;-76
2023/04/13 07:45:42;;;;;;;0.67;0.60;;;22.10;52.30;;;;;;5012754;28;20467;-75
2023/04/13 07:48:11;;;;;;;0.63;0.60;;;22.10;52.10;;;;;;5009038;28;20454;-75
2023/04/13 07:50:41;;;;;;;1.03;0.70;;;22.10;52.10;;;;;;5014650;28;20455;-75
2023/04/13 07:53:14;;;;;;;0.83;0.70;;;22.20;52.00;;;;;;5013379;28;20490;-75
2023/04/13 07:55:43;;;;;;;0.60;0.60;;;22.10;52.00;;;;;;5014366;28;20477;-75
2023/04/13 07:58:12;;;;;;;1.00;0.70;;;22.20;52.10;;;;;;5013803;28;20550;-78
2023/04/13 08:00:42;;;;;;;0.70;0.60;;;22.20;51.90;;;;;;5013940;28;21292;-75
2023/04/13 08:03:10;;;;;;;0.50;0.40;;;22.20;51.90;;;;;;5031979;28;20439;-75
2023/04/13 08:05:39;;;;;;;0.50;0.50;;;22.20;51.90;;;;;;5031904;28;20458;-75
2023/04/13 08:08:09;;;;;;;1.20;0.60;;;22.20;51.90;;;;;;5014283;28;20460;-74
2023/04/13 08:10:37;;;;;;;0.47;0.47;;;22.20;52.00;;;;;;5014515;28;20468;-75
2023/04/13 08:13:07;;;;;;;0.50;0.50;;;22.20;51.80;;;;;;5014184;28;20456;-77
2023/04/13 08:15:35;;;;;;;0.60;0.53;;;22.20;51.80;;;;;;5010829;28;20471;-75
2023/04/13 08:18:06;;;;;;;1.30;0.80;;;22.20;51.90;;;;;;5014183;28;20909;-75
2023/04/13 08:20:35;;;;;;;0.67;0.57;;;22.20;51.90;;;;;;5013920;28;20879;-75
2023/04/13 08:23:05;;;;;;;1.13;0.73;;;22.20;51.80;;;;;;5014311;28;20854;-75
2023/04/13 08:25:38;;;;;;;0.53;0.50;;;22.20;52.00;;;;;;5007374;28;20539;-74
2023/04/13 08:28:06;;;;;;;0.60;0.60;;;22.20;52.10;;;;;;5011015;28;20459;-74
2023/04/13 08:30:36;;;;;;;0.60;0.60;;;22.20;52.00;;;;;;5012978;28;20966;-78
2023/04/13 08:33:06;;;;;;;0.40;0.40;;;22.20;52.00;;;;;;5013510;28;20506;-75
2023/04/13 08:35:38;;;;;;;0.50;0.50;;;22.20;51.90;;;;;;5013646;28;20486;-75
2023/04/13 08:38:08;;;;;;;0.50;0.50;;;22.20;51.80;;;;;;5014003;28;20461;-75
2023/04/13 08:40:40;;;;;;;0.80;0.63;;;22.20;51.80;;;;;;5007051;28;20948;-75
2023/04/13 08:43:16;;;;;;;1.07;0.50;;;22.20;51.80;;;;;;5006323;28;20469;-75
2023/04/13 08:45:44;;;;;;;0.70;0.50;;;22.20;51.90;;;;;;5013403;28;20459;-75
2023/04/13 08:48:17;;;;;;;1.00;0.80;;;22.20;52.00;;;;;;5009224;28;20493;-75
2023/04/13 08:50:47;;;;;;;1.33;0.87;;;22.20;52.00;;;;;;5009608;28;20467;-75
2023/04/13 08:53:17;;;;;;;0.60;0.60;;;22.20;51.90;;;;;;5029999;28;20585;-74
2023/04/13 08:55:49;;;;;;;0.70;0.60;;;22.20;51.90;;;;;;5012285;28;20478;-75
2023/04/13 08:58:19;;;;;;;0.60;0.60;;;22.20;51.80;;;;;;5013277;28;20467;-74
2023/04/13 09:00:49;;;;;;;0.80;0.60;;;22.20;51.80;;;;;;5013355;28;20466;-75
2023/04/13 09:03:24;;;;;;;0.80;0.80;;;22.20;51.80;;;;;;5013221;28;20465;-75
2023/04/13 09:05:58;;;;;;;0.53;0.43;;;22.20;51.90;;;;;;5002775;28;20468;-76
2023/04/13 09:08:33;;;;;;;1.57;0.90;;;22.30;51.80;;;;;;4999119;28;20829;-74
2023/04/13 09:11:03;;;;;;;0.63;0.60;;;22.30;51.90;;;;;;5012702;28;20460;-75
2023/04/13 09:13:31;;;;;;;1.13;0.70;;;22.30;51.80;;;;;;5012164;28;20465;-74
2023/04/13 09:16:01;;;;;;;1.07;0.80;;;22.30;51.80;;;;;;5031165;28;20491;-75
2023/04/13 09:18:52;;;;;;;2.50;0.50;;;22.30;51.80;;;;;;5012623;28;20466;-75
2023/04/13 09:21:20;;;;;;;0.83;0.70;;;22.30;51.80;;;;;;5030300;28;20517;-75
2023/04/13 09:23:55;;;;;;;1.10;0.43;;;22.30;51.80;;;;;;5029500;28;20533;-80
2023/04/13 09:26:24;;;;;;;0.67;0.67;;;22.30;51.90;;;;;;5030623;28;20544;-74
2023/04/13 09:28:55;;;;;;;0.80;0.43;;;22.30;51.90;;;;;;5030102;28;20450;-79
2023/04/13 09:31:24;;;;;;;0.60;0.60;;;22.30;51.90;;;;;;5031094;28;20456;-75
2023/04/13 09:33:53;;;;;;;1.23;0.63;;;22.30;51.90;;;;;;5030374;28;20517;-76
2023/04/13 09:36:22;;;;;;;1.00;0.60;;;22.30;52.00;;;;;;5030680;28;20471;-75
2023/04/13 09:38:52;;;;;;;0.73;0.50;;;22.30;51.80;;;;;;5030649;28;20446;-75
2023/04/13 09:41:34;;;;;;;1.03;0.80;;;22.30;51.70;;;;;;5010801;28;20534;-78
2023/04/13 09:44:15;;;;;;;0.50;0.50;;;22.30;51.90;;;;;;5015552;28;20461;-75
2023/04/13 09:46:44;;;;;;;2.00;0.67;;;22.30;51.80;;;;;;5030737;28;20530;-75
2023/04/13 09:49:13;;;;;;;1.23;0.50;;;22.30;51.90;;;;;;5018798;28;20927;-74
2023/04/13 09:51:42;;;;;;;1.40;0.60;;;22.30;51.90;;;;;;5028677;28;20796;-77
2023/04/13 09:54:11;;;;;;;2.30;0.70;;;22.40;51.90;;;;;;5029254;28;20454;-80
2023/04/13 09:56:46;;;;;;;1.40;0.60;;;22.40;51.90;;;;;;5030596;28;20480;-74
2023/04/13 09:59:16;;;;;;;0.53;0.50;;;22.40;51.80;;;;;;5029558;28;20529;-75
2023/04/13 10:01:44;;;;;;;0.60;0.60;;;22.40;51.80;;;;;;5030932;28;20477;-77
2023/04/13 10:04:15;;;;;;;1.20;0.60;;;22.40;51.80;;;;;;5030383;28;20450;-74
2023/04/13 10:06:43;;;;;;;0.80;0.60;;;22.40;51.70;;;;;;5030481;28;21017;-74
2023/04/13 10:09:11;;;;;;;0.97;0.60;;;22.40;51.70;;;;;;5030375;28;20474;-74
2023/04/13 10:11:45;;;;;;;1.57;0.73;;;22.40;51.70;;;;;;5029105;28;20494;-77
2023/04/13 10:14:18;;;;;;;1.93;0.60;;;22.50;51.70;;;;;;5029424;28;20493;-74
2023/04/13 10:17:11;;;;;;;0.63;0.60;;;22.50;51.70;;;;;;5032061;28;20573;-75
2023/04/13 10:19:45;;;;;;;0.60;0.60;;;22.40;51.60;;;;;;5025754;28;20549;-78
2023/04/13 10:22:14;;;;;;;0.70;0.53;;;22.50;51.70;;;;;;5033779;28;20443;-74
2023/04/13 10:24:43;;;;;;;0.60;0.60;;;22.50;51.70;;;;;;5032888;28;20479;-76
2023/04/13 10:27:13;;;;;;;0.67;0.67;;;22.50;51.70;;;;;;5030534;28;21293;-74
2023/04/13 10:29:42;;;;;;;0.40;0.40;;;22.50;51.70;;;;;;5032377;28;20900;-74
2023/04/13 10:32:20;;;;;;;0.87;0.60;;;22.50;51.70;;;;;;5034252;28;20494;-75
2023/04/13 10:34:50;;;;;;;0.60;0.57;;;22.50;51.70;;;;;;5033294;28;20454;-75
2023/04/13 10:37:21;;;;;;;0.60;0.57;;;22.50;51.60;;;;;;5015974;28;20475;-77
2023/04/13 10:40:01;;;;;;;1.20;0.53;;;22.60;51.60;;;;;;5033197;28;20558;-77
2023/04/13 10:42:40;;;;;;;1.00;0.70;;;22.60;51.60;;;;;;5033357;28;20478;-74
2023/04/13 10:45:22;;;;;;;1.07;0.60;;;22.60;51.60;;;;;;5033097;28;20439;-75
2023/04/13 10:47:51;;;;;;;0.40;0.40;;;22.60;51.50;;;;;;5019345;28;20445;-75
2023/04/13 10:50:22;;;;;;;0.93;0.60;;;22.70;51.70;;;;;;5025563;28;20486;-75
2023/04/13 10:52:58;;;;;;;0.50;0.50;;;22.70;51.50;;;;;;5032757;28;20577;-76
2023/04/13 10:55:27;;;;;;;0.73;0.70;;;22.70;51.70;;;;;;5033310;28;20450;-75
2023/04/13 10:57:56;;;;;;;1.07;0.47;;;22.80;51.70;;;;;;5033344;28;20472;-75
2023/04/13 11:00:24;;;;;;;0.80;0.50;;;22.80;51.70;;;;;;5021167;28;20468;-78
2023/04/13 11:03:09;;;;;;;1.20;0.70;;;22.90;51.50;;;;;;5032958;28;20448;-75
2023/04/13 11:05:39;;;;;;;0.87;0.50;;;22.90;51.30;;;;;;5029561;28;20462;-75
2023/04/13 11:08:08;;;;;;;0.80;0.63;;;23.00;51.30;;;;;;5029529;28;20523;-77
2023/04/13 11:10:36;;;;;;;1.17;0.80;;;23.00;51.20;;;;;;5031362;28;20456;-76
2023/04/13 11:13:04;;;;;;;1.87;1.20;;;23.00;51.10;;;;;;5014423;28;20459;-77
2023/04/13 11:15:33;;;;;;;1.37;0.90;;;23.10;51.10;;;;;;5032013;28;20492;-74
2023/04/13 11:18:02;;;;;;;1.37;0.80;;;23.10;51.10;;;;;;5032998;28;20476;-75
2023/04/13 11:20:32;;;;;;;0.83;0.70;;;23.20;50.90;;;;;;5032628;28;20480;-75
2023/04/13 11:23:05;;;;;;;0.63;0.60;;;23.20;50.80;;;;;;5015014;28;20644;-75
2023/04/13 11:25:33;;;;;;;2.20;1.17;;;23.20;50.70;;;;;;5032691;28;20448;-75
2023/04/13 11:28:03;;;;;;;0.60;0.60;;;23.10;50.60;;;;;;5031283;28;20934;-75
2023/04/13 11:30:31;;;;;;;0.73;0.67;;;23.10;50.70;;;;;;5031646;28;20479;-75
2023/04/13 11:33:01;;;;;;;0.60;0.60;;;23.10;50.80;;;;;;5032616;28;20542;-75
2023/04/13 11:35:29;;;;;;;0.87;0.77;;;23.00;50.80;;;;;;5032232;28;20454;-74
2023/04/13 11:37:58;;;;;;;1.37;1.07;;;23.00;50.80;;;;;;5032044;28;20533;-74
2023/04/13 11:40:28;;;;;;;0.60;0.60;;;22.90;50.80;;;;;;5019423;28;20495;-75
2023/04/13 11:42:57;;;;;;;0.97;0.80;;;22.80;50.90;;;;;;5032870;28;20483;-75
2023/04/13 11:45:27;;;;;;;0.80;0.73;;;22.80;51.10;;;;;;5029957;28;20439;-76
2023/04/13 11:47:57;;;;;;;1.53;1.00;;;22.80;51.00;;;;;;5032428;28;20451;-75
2023/04/13 11:50:26;;;;;;;0.80;0.50;;;22.70;51.10;;;;;;5032087;28;20532;-76
2023/04/13 11:52:56;;;;;;;1.47;0.60;;;22.70;51.20;;;;;;5030885;28;20570;-78
2023/04/13 11:55:27;;;;;;;0.83;0.70;;;22.70;51.30;;;;;;5032119;28;20536;-76
2023/04/13 11:57:57;;;;;;;0.90;0.60;;;22.60;51.30;;;;;;5032360;28;21054;-75
2023/04/13 12:00:27;;;;;;;0.97;0.70;;;22.60;51.50;;;;;;5030903;28;20525;-77
2023/04/13 12:02:57;;;;;;;0.67;0.67;;;22.60;51.50;;;;;;5013263;28;20456;-75
2023/04/13 12:05:31;;;;;;;0.80;0.53;;;22.60;51.60;;;;;;5026728;28;20547;-78
2023/04/13 12:08:01;;;;;;;0.40;0.30;;;22.60;51.60;;;;;;5024047;28;20487;-76
2023/04/13 12:10:35;;;;;;;0.60;0.60;;;22.60;51.60;;;;;;5026967;28;20486;-74
2023/04/13 12:13:18;;;;;;;1.00;0.50;;;22.60;51.60;;;;;;5031039;28;20447;-75
2023/04/13 12:16:03;;;;;;;0.70;0.50;;;22.60;51.60;;;;;;5017684;28;20459;-75
2023/04/13 12:18:46;;;;;;;0.97;0.70;;;22.60;51.50;;;;;;5031381;28;20495;-77
2023/04/13 12:21:18;;;;;;;1.00;0.60;;;22.60;51.50;;;;;;5031384;28;20456;-75
2023/04/13 12:23:54;;;;;;;0.43;0.43;;;22.60;51.40;;;;;;5013751;28;20813;-75
2023/04/13 12:26:31;;;;;;;0.50;0.40;;;22.60;51.40;;;;;;5030006;28;20484;-76
2023/04/13 12:29:22;;;;;;;0.60;0.60;;;22.70;51.40;;;;;;5013196;28;20466;-76
2023/04/13 12:31:50;;;;;;;2.30;0.73;;;22.70;51.40;;;;;;5029857;28;20495;-75
2023/04/13 12:34:19;;;;;;;0.90;0.70;;;22.70;51.40;;;;;;5013577;28;21042;-75
2023/04/13 12:36:47;;;;;;;0.60;0.60;;;22.70;51.40;;;;;;5031313;28;20471;-75
2023/04/13 12:39:15;;;;;;;0.53;0.53;;;22.70;51.40;;;;;;5011524;28;20957;-76
2023/04/13 12:41:45;;;;;;;1.67;0.80;;;22.70;51.30;;;;;;5030033;28;20465;-79
2023/04/13 12:44:13;;;;;;;1.67;0.77;;;22.70;51.30;;;;;;5018136;28;20447;-76
2023/04/13 12:46:42;;;;;;;0.80;0.80;;;22.80;51.30;;;;;;5031292;28;20542;-75
2023/04/13 12:49:10;;;;;;;1.47;0.73;;;22.80;51.30;;;;;;5029783;28;20461;-78
2023/04/13 12:51:38;;;;;;;0.60;0.50;;;22.80;51.30;;;;;;5031735;28;20506;-75
2023/04/13 12:54:11;;;;;;;2.60;0.90;;;22.80;51.20;;;;;;5030805;28;20930;-75
2023/04/13 12:56:42;;;;;;;0.73;0.73;;;22.80;51.30;;;;;;5001762;28;20463;-75
2023/04/13 12:59:12;;;;;;;0.70;0.60;;;22.80;51.20;;;;;;5012896;28;20455;-76
2023/04/13 13:01:40;;;;;;;1.60;0.70;;;22.80;51.20;;;;;;5028993;28;20459;-76
2023/04/13 13:04:08;;;;;;;0.60;0.60;;;22.70;51.20;;;;;;5030537;28;20471;-76
2023/04/13 13:06:37;;;;;;;0.67;0.67;;;22.70;51.30;;;;;;5028453;28;21030;-76
2023/04/13 13:09:06;;;;;;;0.80;0.70;;;22.70;51.30;;;;;;5028877;28;20935;-76